sensor_id;sensor_type;location;lat;lon;timestamp;pressure;altitude;pressure_sealevel;temperature
67515;BMP280;60646;55.802;37.032;2023-07-28T00:02:13;98149.69;;;25.68
67515;BMP280;60646;55.802;37.032;2023-07-28T00:04:39;98157.34;;;25.71
67515;BMP280;60646;55.802;37.032;2023-07-28T00:07:05;98147.00;;;25.70
67515;BMP280;60646;55.802;37.032;2023-07-28T00:09:31;98166.97;;;25.72
67515;BMP280;60646;55.802;37.032;2023-07-28T00:11:59;98171.00;;;25.71
67515;BMP280;60646;55.802;37.032;2023-07-28T00:14:26;98184.63;;;25.69
67515;BMP280;60646;55.802;37.032;2023-07-28T00:16:55;98174.56;;;25.56
67515;BMP280;60646;55.802;37.032;2023-07-28T00:19:21;98177.44;;;25.60
67515;BMP280;60646;55.802;37.032;2023-07-28T00:21:48;98178.00;;;25.57
67515;BMP280;60646;55.802;37.032;2023-07-28T00:24:15;98184.00;;;25.53
67515;BMP280;60646;55.802;37.032;2023-07-28T00:26:41;98200.72;;;25.61
67515;BMP280;60646;55.802;37.032;2023-07-28T00:29:06;98205.50;;;25.61
67515;BMP280;60646;55.802;37.032;2023-07-28T00:31:35;98175.41;;;25.43
67515;BMP280;60646;55.802;37.032;2023-07-28T00:34:02;98194.66;;;25.45
67515;BMP280;60646;55.802;37.032;2023-07-28T00:36:30;98192.13;;;25.51
67515;BMP280;60646;55.802;37.032;2023-07-28T00:38:57;98189.34;;;25.49
67515;BMP280;60646;55.802;37.032;2023-07-28T00:41:24;98200.28;;;25.49
67515;BMP280;60646;55.802;37.032;2023-07-28T00:43:50;98198.78;;;25.46
67515;BMP280;60646;55.802;37.032;2023-07-28T00:46:17;98199.63;;;25.51
67515;BMP280;60646;55.802;37.032;2023-07-28T00:48:43;98189.81;;;25.44
67515;BMP280;60646;55.802;37.032;2023-07-28T00:51:11;98206.84;;;25.42
67515;BMP280;60646;55.802;37.032;2023-07-28T00:53:38;98211.91;;;25.50
67515;BMP280;60646;55.802;37.032;2023-07-28T00:56:05;98195.75;;;25.38
67515;BMP280;60646;55.802;37.032;2023-07-28T00:58:32;98183.19;;;25.31
67515;BMP280;60646;55.802;37.032;2023-07-28T01:00:58;98207.22;;;25.34
67515;BMP280;60646;55.802;37.032;2023-07-28T01:03:25;98206.22;;;25.44
67515;BMP280;60646;55.802;37.032;2023-07-28T01:11:26;98186.50;;;25.47
67515;BMP280;60646;55.802;37.032;2023-07-28T01:13:51;98178.94;;;25.46
67515;BMP280;60646;55.802;37.032;2023-07-28T01:16:17;98179.63;;;25.46
67515;BMP280;60646;55.802;37.032;2023-07-28T01:18:43;98172.69;;;25.43
67515;BMP280;60646;55.802;37.032;2023-07-28T01:21:14;98181.75;;;25.48
67515;BMP280;60646;55.802;37.032;2023-07-28T01:23:52;98158.88;;;25.39
67515;BMP280;60646;55.802;37.032;2023-07-28T01:26:36;98171.84;;;25.56
67515;BMP280;60646;55.802;37.032;2023-07-28T01:29:03;98178.41;;;25.49
67515;BMP280;60646;55.802;37.032;2023-07-28T01:31:30;98153.25;;;25.35
67515;BMP280;60646;55.802;37.032;2023-07-28T01:33:56;98160.28;;;25.40
67515;BMP280;60646;55.802;37.032;2023-07-28T01:36:22;98156.00;;;25.35
67515;BMP280;60646;55.802;37.032;2023-07-28T01:38:48;98161.47;;;25.35
67515;BMP280;60646;55.802;37.032;2023-07-28T01:41:14;98183.72;;;25.45
67515;BMP280;60646;55.802;37.032;2023-07-28T01:43:40;98166.97;;;25.37
67515;BMP280;60646;55.802;37.032;2023-07-28T01:46:07;98141.63;;;25.34
67515;BMP280;60646;55.802;37.032;2023-07-28T01:48:33;98155.66;;;25.45
67515;BMP280;60646;55.802;37.032;2023-07-28T01:50:59;98136.75;;;25.33
67515;BMP280;60646;55.802;37.032;2023-07-28T01:53:25;98140.34;;;25.37
67515;BMP280;60646;55.802;37.032;2023-07-28T01:55:51;98135.38;;;25.32
67515;BMP280;60646;55.802;37.032;2023-07-28T01:58:17;98137.47;;;25.33
67515;BMP280;60646;55.802;37.032;2023-07-28T02:00:42;98135.44;;;25.34
67515;BMP280;60646;55.802;37.032;2023-07-28T02:03:09;98142.31;;;25.35
67515;BMP280;60646;55.802;37.032;2023-07-28T02:05:35;98126.84;;;25.24
67515;BMP280;60646;55.802;37.032;2023-07-28T02:08:01;98134.28;;;25.39
67515;BMP280;60646;55.802;37.032;2023-07-28T02:10:27;98119.19;;;25.38
67515;BMP280;60646;55.802;37.032;2023-07-28T02:12:54;98110.13;;;25.33
67515;BMP280;60646;55.802;37.032;2023-07-28T02:15:20;98091.16;;;25.20
67515;BMP280;60646;55.802;37.032;2023-07-28T02:17:46;98096.31;;;25.29
67515;BMP280;60646;55.802;37.032;2023-07-28T02:20:27;98100.53;;;25.32
67515;BMP280;60646;55.802;37.032;2023-07-28T02:22:53;98104.63;;;25.31
67515;BMP280;60646;55.802;37.032;2023-07-28T02:25:19;98117.63;;;25.33
67515;BMP280;60646;55.802;37.032;2023-07-28T02:27:46;98116.22;;;25.32
67515;BMP280;60646;55.802;37.032;2023-07-28T02:30:12;98121.88;;;25.36
67515;BMP280;60646;55.802;37.032;2023-07-28T02:32:39;98120.16;;;25.27
67515;BMP280;60646;55.802;37.032;2023-07-28T02:35:05;98121.69;;;25.32
67515;BMP280;60646;55.802;37.032;2023-07-28T02:37:31;98137.13;;;25.43
67515;BMP280;60646;55.802;37.032;2023-07-28T02:39:57;98122.41;;;25.32
67515;BMP280;60646;55.802;37.032;2023-07-28T02:42:22;98134.34;;;25.41
67515;BMP280;60646;55.802;37.032;2023-07-28T02:44:49;98135.75;;;25.42
67515;BMP280;60646;55.802;37.032;2023-07-28T02:47:15;98134.66;;;25.49
67515;BMP280;60646;55.802;37.032;2023-07-28T02:49:41;98109.53;;;25.35
67515;BMP280;60646;55.802;37.032;2023-07-28T02:52:08;98116.22;;;25.32
67515;BMP280;60646;55.802;37.032;2023-07-28T02:54:33;98160.59;;;25.48
67515;BMP280;60646;55.802;37.032;2023-07-28T02:56:59;98149.50;;;25.44
67515;BMP280;60646;55.802;37.032;2023-07-28T02:59:26;98148.78;;;25.44
67515;BMP280;60646;55.802;37.032;2023-07-28T03:01:52;98173.00;;;25.51
67515;BMP280;60646;55.802;37.032;2023-07-28T03:04:18;98178.47;;;25.51
67515;BMP280;60646;55.802;37.032;2023-07-28T03:07:04;98186.63;;;25.49
67515;BMP280;60646;55.802;37.032;2023-07-28T03:09:30;98193.97;;;25.45
67515;BMP280;60646;55.802;37.032;2023-07-28T03:12:01;98195.28;;;25.44
67515;BMP280;60646;55.802;37.032;2023-07-28T03:14:27;98182.03;;;25.36
67515;BMP280;60646;55.802;37.032;2023-07-28T03:16:54;98177.75;;;25.33
67515;BMP280;60646;55.802;37.032;2023-07-28T03:19:20;98180.81;;;25.41
67515;BMP280;60646;55.802;37.032;2023-07-28T03:21:46;98203.03;;;25.49
67515;BMP280;60646;55.802;37.032;2023-07-28T03:24:12;98226.38;;;25.52
67515;BMP280;60646;55.802;37.032;2023-07-28T03:26:38;98248.16;;;25.50
67515;BMP280;60646;55.802;37.032;2023-07-28T03:29:05;98245.41;;;25.50
67515;BMP280;60646;55.802;37.032;2023-07-28T03:31:31;98261.38;;;25.56
67515;BMP280;60646;55.802;37.032;2023-07-28T03:33:57;98267.94;;;25.66
67515;BMP280;60646;55.802;37.032;2023-07-28T03:36:25;98271.84;;;25.61
67515;BMP280;60646;55.802;37.032;2023-07-28T03:38:57;98276.22;;;25.68
67515;BMP280;60646;55.802;37.032;2023-07-28T03:41:24;98270.66;;;25.66
67515;BMP280;60646;55.802;37.032;2023-07-28T03:43:50;98282.00;;;25.76
67515;BMP280;60646;55.802;37.032;2023-07-28T03:46:16;98264.94;;;25.60
67515;BMP280;60646;55.802;37.032;2023-07-28T03:48:42;98257.56;;;25.63
67515;BMP280;60646;55.802;37.032;2023-07-28T03:51:07;98300.16;;;25.85
67515;BMP280;60646;55.802;37.032;2023-07-28T03:53:33;98295.28;;;25.84
67515;BMP280;60646;55.802;37.032;2023-07-28T03:56:02;98290.44;;;25.82
67515;BMP280;60646;55.802;37.032;2023-07-28T03:58:28;98276.53;;;25.76
67515;BMP280;60646;55.802;37.032;2023-07-28T04:00:54;98257.84;;;25.71
67515;BMP280;60646;55.802;37.032;2023-07-28T04:03:21;98257.13;;;25.70
67515;BMP280;60646;55.802;37.032;2023-07-28T04:05:46;98260.97;;;25.81
67515;BMP280;60646;55.802;37.032;2023-07-28T04:08:12;98245.31;;;25.83
67515;BMP280;60646;55.802;37.032;2023-07-28T04:10:39;98207.66;;;25.82
67515;BMP280;60646;55.802;37.032;2023-07-28T04:13:04;98180.91;;;25.80
67515;BMP280;60646;55.802;37.032;2023-07-28T04:15:30;98154.88;;;25.79
67515;BMP280;60646;55.802;37.032;2023-07-28T04:17:56;98123.53;;;25.82
67515;BMP280;60646;55.802;37.032;2023-07-28T04:20:21;98090.78;;;25.84
67515;BMP280;60646;55.802;37.032;2023-07-28T04:22:47;98089.34;;;25.83
67515;BMP280;60646;55.802;37.032;2023-07-28T04:25:13;98123.31;;;25.76
67515;BMP280;60646;55.802;37.032;2023-07-28T04:27:43;98079.44;;;25.72
67515;BMP280;60646;55.802;37.032;2023-07-28T04:30:09;98091.88;;;25.77
67515;BMP280;60646;55.802;37.032;2023-07-28T04:32:54;98083.75;;;25.79
67515;BMP280;60646;55.802;37.032;2023-07-28T04:35:25;98088.25;;;25.71
67515;BMP280;60646;55.802;37.032;2023-07-28T04:38:01;98112.38;;;25.76
67515;BMP280;60646;55.802;37.032;2023-07-28T04:40:48;98120.38;;;25.70
67515;BMP280;60646;55.802;37.032;2023-07-28T04:43:17;98110.16;;;25.53
67515;BMP280;60646;55.802;37.032;2023-07-28T04:45:49;98125.47;;;25.60
67515;BMP280;60646;55.802;37.032;2023-07-28T04:48:18;98123.03;;;25.68
67515;BMP280;60646;55.802;37.032;2023-07-28T04:50:45;98129.75;;;25.65
67515;BMP280;60646;55.802;37.032;2023-07-28T04:53:16;98134.69;;;25.69
67515;BMP280;60646;55.802;37.032;2023-07-28T04:55:56;98156.78;;;25.75
67515;BMP280;60646;55.802;37.032;2023-07-28T04:58:21;98144.97;;;25.70
67515;BMP280;60646;55.802;37.032;2023-07-28T05:00:50;98140.59;;;25.81
67515;BMP280;60646;55.802;37.032;2023-07-28T05:03:16;98140.72;;;25.85
67515;BMP280;60646;55.802;37.032;2023-07-28T05:05:56;98112.72;;;25.86
67515;BMP280;60646;55.802;37.032;2023-07-28T05:08:23;98116.44;;;25.95
67515;BMP280;60646;55.802;37.032;2023-07-28T05:10:50;98108.03;;;25.89
67515;BMP280;60646;55.802;37.032;2023-07-28T05:13:15;98124.44;;;26.08
67515;BMP280;60646;55.802;37.032;2023-07-28T05:15:50;98112.25;;;26.11
67515;BMP280;60646;55.802;37.032;2023-07-28T05:18:27;98105.50;;;26.14
67515;BMP280;60646;55.802;37.032;2023-07-28T05:21:15;98103.66;;;26.21
67515;BMP280;60646;55.802;37.032;2023-07-28T05:23:41;98106.03;;;26.30
67515;BMP280;60646;55.802;37.032;2023-07-28T05:26:07;98088.06;;;26.25
67515;BMP280;60646;55.802;37.032;2023-07-28T05:28:34;98105.13;;;26.46
67515;BMP280;60646;55.802;37.032;2023-07-28T05:31:05;98124.50;;;26.52
67515;BMP280;60646;55.802;37.032;2023-07-28T05:33:31;98114.19;;;26.50
67515;BMP280;60646;55.802;37.032;2023-07-28T05:36:04;98115.59;;;26.51
67515;BMP280;60646;55.802;37.032;2023-07-28T05:38:30;98127.56;;;26.62
67515;BMP280;60646;55.802;37.032;2023-07-28T05:41:00;98138.91;;;26.74
67515;BMP280;60646;55.802;37.032;2023-07-28T05:43:27;98134.72;;;26.71
67515;BMP280;60646;55.802;37.032;2023-07-28T05:45:56;98136.09;;;26.72
67515;BMP280;60646;55.802;37.032;2023-07-28T05:48:23;98128.72;;;26.76
67515;BMP280;60646;55.802;37.032;2023-07-28T05:50:48;98149.00;;;26.89
67515;BMP280;60646;55.802;37.032;2023-07-28T05:53:16;98142.22;;;26.92
67515;BMP280;60646;55.802;37.032;2023-07-28T05:55:43;98143.88;;;27.01
67515;BMP280;60646;55.802;37.032;2023-07-28T05:58:09;98162.56;;;27.06
67515;BMP280;60646;55.802;37.032;2023-07-28T06:00:40;98157.09;;;27.08
67515;BMP280;60646;55.802;37.032;2023-07-28T06:03:11;98151.00;;;27.10
67515;BMP280;60646;55.802;37.032;2023-07-28T06:05:55;98159.41;;;27.16
67515;BMP280;60646;55.802;37.032;2023-07-28T06:08:21;98160.94;;;27.21
67515;BMP280;60646;55.802;37.032;2023-07-28T06:10:47;98169.22;;;27.23
67515;BMP280;60646;55.802;37.032;2023-07-28T06:13:13;98177.75;;;27.33
67515;BMP280;60646;55.802;37.032;2023-07-28T06:15:39;98173.66;;;27.34
67515;BMP280;60646;55.802;37.032;2023-07-28T06:18:06;98185.72;;;27.49
67515;BMP280;60646;55.802;37.032;2023-07-28T06:20:32;98186.72;;;27.59
67515;BMP280;60646;55.802;37.032;2023-07-28T06:22:57;98180.53;;;27.59
67515;BMP280;60646;55.802;37.032;2023-07-28T06:25:23;98192.56;;;27.71
67515;BMP280;60646;55.802;37.032;2023-07-28T06:27:49;98183.59;;;27.69
67515;BMP280;60646;55.802;37.032;2023-07-28T06:30:15;98203.69;;;27.75
67515;BMP280;60646;55.802;37.032;2023-07-28T06:32:41;98216.28;;;27.84
67515;BMP280;60646;55.802;37.032;2023-07-28T06:35:06;98232.88;;;27.88
67515;BMP280;60646;55.802;37.032;2023-07-28T06:37:34;98236.88;;;27.85
67515;BMP280;60646;55.802;37.032;2023-07-28T06:40:00;98260.88;;;27.85
67515;BMP280;60646;55.802;37.032;2023-07-28T06:42:26;98287.66;;;27.84
67515;BMP280;60646;55.802;37.032;2023-07-28T06:44:55;98303.16;;;27.76
67515;BMP280;60646;55.802;37.032;2023-07-28T06:47:22;98323.72;;;27.75
67515;BMP280;60646;55.802;37.032;2023-07-28T06:49:48;98328.00;;;27.58
67515;BMP280;60646;55.802;37.032;2023-07-28T06:52:14;98331.28;;;27.53
67515;BMP280;60646;55.802;37.032;2023-07-28T06:54:43;98353.78;;;27.49
67515;BMP280;60646;55.802;37.032;2023-07-28T06:57:09;98365.34;;;27.46
67515;BMP280;60646;55.802;37.032;2023-07-28T06:59:34;98385.88;;;27.45
67515;BMP280;60646;55.802;37.032;2023-07-28T07:02:00;98397.44;;;27.41
67515;BMP280;60646;55.802;37.032;2023-07-28T07:04:26;98390.16;;;27.28
67515;BMP280;60646;55.802;37.032;2023-07-28T07:06:52;98355.56;;;27.19
67515;BMP280;60646;55.802;37.032;2023-07-28T07:09:18;98310.75;;;27.10
67515;BMP280;60646;55.802;37.032;2023-07-28T07:11:44;98279.81;;;27.08
67515;BMP280;60646;55.802;37.032;2023-07-28T07:14:10;98228.94;;;27.03
67515;BMP280;60646;55.802;37.032;2023-07-28T07:16:35;98240.31;;;26.95
67515;BMP280;60646;55.802;37.032;2023-07-28T07:19:02;98258.63;;;26.89
67515;BMP280;60646;55.802;37.032;2023-07-28T07:21:28;98267.34;;;26.83
67515;BMP280;60646;55.802;37.032;2023-07-28T07:23:54;98248.72;;;26.80
67515;BMP280;60646;55.802;37.032;2023-07-28T07:26:25;98245.78;;;26.95
67515;BMP280;60646;55.802;37.032;2023-07-28T07:28:51;98236.09;;;26.71
67515;BMP280;60646;55.802;37.032;2023-07-28T07:31:16;98252.31;;;26.65
67515;BMP280;60646;55.802;37.032;2023-07-28T07:33:42;98245.53;;;26.66
67515;BMP280;60646;55.802;37.032;2023-07-28T07:36:15;98236.03;;;26.69
67515;BMP280;60646;55.802;37.032;2023-07-28T07:38:42;98187.56;;;26.54
67515;BMP280;60646;55.802;37.032;2023-07-28T07:41:12;98186.31;;;26.57
67515;BMP280;60646;55.802;37.032;2023-07-28T07:43:38;98223.13;;;26.52
67515;BMP280;60646;55.802;37.032;2023-07-28T07:46:04;98245.09;;;26.54
67515;BMP280;60646;55.802;37.032;2023-07-28T07:48:30;98247.19;;;26.55
67515;BMP280;60646;55.802;37.032;2023-07-28T07:50:56;98243.75;;;26.55
67515;BMP280;60646;55.802;37.032;2023-07-28T07:53:22;98260.34;;;26.59
67515;BMP280;60646;55.802;37.032;2023-07-28T07:55:49;98255.00;;;26.63
67515;BMP280;60646;55.802;37.032;2023-07-28T07:58:15;98251.72;;;26.66
67515;BMP280;60646;55.802;37.032;2023-07-28T08:00:40;98263.56;;;26.73
67515;BMP280;60646;55.802;37.032;2023-07-28T08:03:06;98271.28;;;26.78
67515;BMP280;60646;55.802;37.032;2023-07-28T08:05:32;98255.69;;;26.83
67515;BMP280;60646;55.802;37.032;2023-07-28T08:07:59;98272.53;;;26.95
67515;BMP280;60646;55.802;37.032;2023-07-28T08:10:25;98279.53;;;27.00
67515;BMP280;60646;55.802;37.032;2023-07-28T08:12:51;98264.22;;;26.93
67515;BMP280;60646;55.802;37.032;2023-07-28T08:15:16;98266.03;;;27.06
67515;BMP280;60646;55.802;37.032;2023-07-28T08:17:42;98272.16;;;27.26
67515;BMP280;60646;55.802;37.032;2023-07-28T08:20:08;98281.91;;;27.31
67515;BMP280;60646;55.802;37.032;2023-07-28T08:22:34;98268.50;;;27.41
67515;BMP280;60646;55.802;37.032;2023-07-28T08:25:00;98270.22;;;27.52
67515;BMP280;60646;55.802;37.032;2023-07-28T08:27:26;98275.97;;;27.60
67515;BMP280;60646;55.802;37.032;2023-07-28T08:29:52;98286.69;;;27.76
67515;BMP280;60646;55.802;37.032;2023-07-28T08:32:17;98276.50;;;27.78
67515;BMP280;60646;55.802;37.032;2023-07-28T08:34:43;98268.25;;;27.78
67515;BMP280;60646;55.802;37.032;2023-07-28T08:37:09;98286.59;;;27.95
67515;BMP280;60646;55.802;37.032;2023-07-28T08:39:35;98271.63;;;28.00
67515;BMP280;60646;55.802;37.032;2023-07-28T08:42:01;98276.00;;;28.09
67515;BMP280;60646;55.802;37.032;2023-07-28T08:44:30;98276.28;;;28.19
67515;BMP280;60646;55.802;37.032;2023-07-28T08:46:57;98279.84;;;28.24
67515;BMP280;60646;55.802;37.032;2023-07-28T08:49:23;98285.50;;;28.30
67515;BMP280;60646;55.802;37.032;2023-07-28T08:51:50;98296.00;;;28.38
67515;BMP280;60646;55.802;37.032;2023-07-28T08:54:16;98293.78;;;28.32
67515;BMP280;60646;55.802;37.032;2023-07-28T08:56:43;98308.53;;;28.43
67515;BMP280;60646;55.802;37.032;2023-07-28T08:59:09;98306.00;;;28.53
67515;BMP280;60646;55.802;37.032;2023-07-28T09:01:39;98304.75;;;28.58
67515;BMP280;60646;55.802;37.032;2023-07-28T09:04:10;98325.69;;;28.69
67515;BMP280;60646;55.802;37.032;2023-07-28T09:06:37;98321.66;;;28.72
67515;BMP280;60646;55.802;37.032;2023-07-28T09:09:06;98317.53;;;28.73
67515;BMP280;60646;55.802;37.032;2023-07-28T09:11:32;98318.91;;;28.72
67515;BMP280;60646;55.802;37.032;2023-07-28T09:14:00;98320.56;;;28.83
67515;BMP280;60646;55.802;37.032;2023-07-28T09:16:26;98312.16;;;28.77
67515;BMP280;60646;55.802;37.032;2023-07-28T09:19:05;98316.00;;;28.93
67515;BMP280;60646;55.802;37.032;2023-07-28T09:21:33;98320.66;;;28.87
67515;BMP280;60646;55.802;37.032;2023-07-28T09:24:00;98342.56;;;28.83
67515;BMP280;60646;55.802;37.032;2023-07-28T09:26:41;98342.59;;;28.85
67515;BMP280;60646;55.802;37.032;2023-07-28T09:29:14;98374.94;;;28.86
67515;BMP280;60646;55.802;37.032;2023-07-28T09:31:42;98389.19;;;28.79
67515;BMP280;60646;55.802;37.032;2023-07-28T09:34:09;98391.00;;;28.70
67515;BMP280;60646;55.802;37.032;2023-07-28T09:36:35;98411.78;;;28.75
67515;BMP280;60646;55.802;37.032;2023-07-28T09:39:06;98400.00;;;28.73
67515;BMP280;60646;55.802;37.032;2023-07-28T09:41:37;98401.97;;;28.68
67515;BMP280;60646;55.802;37.032;2023-07-28T09:44:04;98410.91;;;28.69
67515;BMP280;60646;55.802;37.032;2023-07-28T09:46:34;98417.75;;;28.68
67515;BMP280;60646;55.802;37.032;2023-07-28T09:49:07;98409.28;;;28.60
67515;BMP280;60646;55.802;37.032;2023-07-28T09:51:36;98404.94;;;28.53
67515;BMP280;60646;55.802;37.032;2023-07-28T09:54:12;98406.94;;;28.50
67515;BMP280;60646;55.802;37.032;2023-07-28T09:56:38;98395.63;;;28.38
67515;BMP280;60646;55.802;37.032;2023-07-28T09:59:11;98392.22;;;28.40
67515;BMP280;60646;55.802;37.032;2023-07-28T10:01:40;98391.28;;;28.31
67515;BMP280;60646;55.802;37.032;2023-07-28T10:04:06;98372.34;;;28.17
67515;BMP280;60646;55.802;37.032;2023-07-28T10:06:33;98377.84;;;28.17
67515;BMP280;60646;55.802;37.032;2023-07-28T10:08:59;98381.00;;;28.08
67515;BMP280;60646;55.802;37.032;2023-07-28T10:11:25;98394.00;;;28.07
67515;BMP280;60646;55.802;37.032;2023-07-28T10:13:54;98386.78;;;27.94
67515;BMP280;60646;55.802;37.032;2023-07-28T10:16:30;98377.81;;;27.94
67515;BMP280;60646;55.802;37.032;2023-07-28T10:18:58;98405.94;;;27.92
67515;BMP280;60646;55.802;37.032;2023-07-28T10:21:28;98398.06;;;27.83
67515;BMP280;60646;55.802;37.032;2023-07-28T10:23:56;98395.22;;;27.79
67515;BMP280;60646;55.802;37.032;2023-07-28T10:26:38;98414.69;;;27.87
67515;BMP280;60646;55.802;37.032;2023-07-28T10:29:09;98417.69;;;27.73
67515;BMP280;60646;55.802;37.032;2023-07-28T10:31:36;98429.94;;;27.70
67515;BMP280;60646;55.802;37.032;2023-07-28T10:34:02;98420.03;;;27.61
67515;BMP280;60646;55.802;37.032;2023-07-28T10:36:32;98424.25;;;27.64
67515;BMP280;60646;55.802;37.032;2023-07-28T10:41:29;98409.63;;;27.79
67515;BMP280;60646;55.802;37.032;2023-07-28T10:43:56;98410.47;;;27.62
67515;BMP280;60646;55.802;37.032;2023-07-28T10:46:22;98377.72;;;27.47
67515;BMP280;60646;55.802;37.032;2023-07-28T10:48:49;98380.81;;;27.57
67515;BMP280;60646;55.802;37.032;2023-07-28T10:51:27;98371.34;;;27.62
67515;BMP280;60646;55.802;37.032;2023-07-28T10:54:00;98379.97;;;27.52
67515;BMP280;60646;55.802;37.032;2023-07-28T10:56:28;98372.25;;;27.47
67515;BMP280;60646;55.802;37.032;2023-07-28T10:58:58;98370.25;;;27.49
67515;BMP280;60646;55.802;37.032;2023-07-28T11:01:38;98380.22;;;27.60
67515;BMP280;60646;55.802;37.032;2023-07-28T11:04:11;98360.91;;;27.56
67515;BMP280;60646;55.802;37.032;2023-07-28T11:06:38;98346.09;;;27.44
67515;BMP280;60646;55.802;37.032;2023-07-28T11:09:06;98345.25;;;27.39
67515;BMP280;60646;55.802;37.032;2023-07-28T11:11:32;98352.25;;;27.44
67515;BMP280;60646;55.802;37.032;2023-07-28T11:14:00;98350.88;;;27.43
67515;BMP280;60646;55.802;37.032;2023-07-28T11:16:26;98362.41;;;27.40
67515;BMP280;60646;55.802;37.032;2023-07-28T11:18:55;98363.09;;;27.40
67515;BMP280;60646;55.802;37.032;2023-07-28T11:21:23;98358.75;;;27.33
67515;BMP280;60646;55.802;37.032;2023-07-28T11:23:49;98356.09;;;27.35
67515;BMP280;60646;55.802;37.032;2023-07-28T11:26:16;98350.41;;;27.29
67515;BMP280;60646;55.802;37.032;2023-07-28T11:28:46;98346.25;;;27.28
67515;BMP280;60646;55.802;37.032;2023-07-28T11:31:11;98357.38;;;27.32
67515;BMP280;60646;55.802;37.032;2023-07-28T11:33:37;98353.75;;;27.25
67515;BMP280;60646;55.802;37.032;2023-07-28T11:36:04;98373.81;;;27.32
67515;BMP280;60646;55.802;37.032;2023-07-28T11:38:30;98374.97;;;27.25
67515;BMP280;60646;55.802;37.032;2023-07-28T11:40:58;98391.44;;;27.25
67515;BMP280;60646;55.802;37.032;2023-07-28T11:43:24;98417.00;;;27.31
67515;BMP280;60646;55.802;37.032;2023-07-28T11:45:54;98421.63;;;27.27
67515;BMP280;60646;55.802;37.032;2023-07-28T11:48:23;98447.00;;;27.25
67515;BMP280;60646;55.802;37.032;2023-07-28T11:50:49;98458.72;;;27.28
67515;BMP280;60646;55.802;37.032;2023-07-28T11:53:19;98461.47;;;27.28
67515;BMP280;60646;55.802;37.032;2023-07-28T11:55:46;98471.72;;;27.27
67515;BMP280;60646;55.802;37.032;2023-07-28T11:58:12;98486.34;;;27.34
67515;BMP280;60646;55.802;37.032;2023-07-28T12:00:39;98492.13;;;27.42
67515;BMP280;60646;55.802;37.032;2023-07-28T12:03:12;98478.47;;;27.44
67515;BMP280;60646;55.802;37.032;2023-07-28T12:05:40;98488.19;;;27.47
67515;BMP280;60646;55.802;37.032;2023-07-28T12:08:06;98492.34;;;27.48
67515;BMP280;60646;55.802;37.032;2023-07-28T12:10:35;98501.22;;;27.49
67515;BMP280;60646;55.802;37.032;2023-07-28T12:13:06;98500.69;;;27.52
67515;BMP280;60646;55.802;37.032;2023-07-28T12:15:32;98489.50;;;27.46
67515;BMP280;60646;55.802;37.032;2023-07-28T12:20:49;98492.78;;;27.62
67515;BMP280;60646;55.802;37.032;2023-07-28T12:23:18;98495.47;;;27.60
67515;BMP280;60646;55.802;37.032;2023-07-28T12:25:45;98491.19;;;27.55
67515;BMP280;60646;55.802;37.032;2023-07-28T12:28:11;98484.78;;;27.49
67515;BMP280;60646;55.802;37.032;2023-07-28T12:30:37;98499.69;;;27.63
67515;BMP280;60646;55.802;37.032;2023-07-28T12:33:04;98501.69;;;27.61
67515;BMP280;60646;55.802;37.032;2023-07-28T12:35:31;98503.22;;;27.66
67515;BMP280;60646;55.802;37.032;2023-07-28T12:37:58;98503.25;;;27.68
67515;BMP280;60646;55.802;37.032;2023-07-28T12:40:26;98502.31;;;27.59
67515;BMP280;60646;55.802;37.032;2023-07-28T12:42:53;98519.63;;;27.64
67515;BMP280;60646;55.802;37.032;2023-07-28T12:45:20;98526.44;;;27.63
67515;BMP280;60646;55.802;37.032;2023-07-28T12:47:47;98523.50;;;27.57
67515;BMP280;60646;55.802;37.032;2023-07-28T12:50:12;98525.47;;;27.54
67515;BMP280;60646;55.802;37.032;2023-07-28T12:52:38;98523.91;;;27.49
67515;BMP280;60646;55.802;37.032;2023-07-28T12:55:04;98518.97;;;27.46
67515;BMP280;60646;55.802;37.032;2023-07-28T12:57:31;98514.75;;;27.43
67515;BMP280;60646;55.802;37.032;2023-07-28T12:59:58;98518.00;;;27.37
67515;BMP280;60646;55.802;37.032;2023-07-28T13:02:23;98527.44;;;27.32
67515;BMP280;60646;55.802;37.032;2023-07-28T13:04:49;98532.91;;;27.32
67515;BMP280;60646;55.802;37.032;2023-07-28T13:07:15;98519.53;;;27.22
67515;BMP280;60646;55.802;37.032;2023-07-28T13:09:41;98527.63;;;27.18
67515;BMP280;60646;55.802;37.032;2023-07-28T13:12:09;98522.78;;;27.17
67515;BMP280;60646;55.802;37.032;2023-07-28T13:14:35;98524.03;;;27.14
67515;BMP280;60646;55.802;37.032;2023-07-28T13:17:01;98529.53;;;27.14
67515;BMP280;60646;55.802;37.032;2023-07-28T13:19:26;98527.97;;;27.09
67515;BMP280;60646;55.802;37.032;2023-07-28T13:21:52;98526.50;;;27.06
67515;BMP280;60646;55.802;37.032;2023-07-28T13:24:18;98532.13;;;27.10
67515;BMP280;60646;55.802;37.032;2023-07-28T13:26:44;98533.44;;;27.09
67515;BMP280;60646;55.802;37.032;2023-07-28T13:29:09;98523.75;;;27.06
67515;BMP280;60646;55.802;37.032;2023-07-28T13:31:35;98536.97;;;27.11
67515;BMP280;60646;55.802;37.032;2023-07-28T13:34:01;98518.59;;;26.96
67515;BMP280;60646;55.802;37.032;2023-07-28T13:36:28;98533.44;;;27.09
67515;BMP280;60646;55.802;37.032;2023-07-28T13:38:53;98546.00;;;27.14
67515;BMP280;60646;55.802;37.032;2023-07-28T13:41:19;98541.78;;;27.11
67515;BMP280;60646;55.802;37.032;2023-07-28T13:43:45;98543.47;;;27.20
67515;BMP280;60646;55.802;37.032;2023-07-28T13:46:11;98541.34;;;27.18
67515;BMP280;60646;55.802;37.032;2023-07-28T13:48:37;98540.78;;;27.22
67515;BMP280;60646;55.802;37.032;2023-07-28T13:51:05;98537.75;;;27.33
67515;BMP280;60646;55.802;37.032;2023-07-28T13:53:31;98535.72;;;27.34
67515;BMP280;60646;55.802;37.032;2023-07-28T13:55:57;98525.41;;;27.33
67515;BMP280;60646;55.802;37.032;2023-07-28T13:58:23;98524.75;;;27.34
67515;BMP280;60646;55.802;37.032;2023-07-28T14:00:49;98519.28;;;27.34
67515;BMP280;60646;55.802;37.032;2023-07-28T14:03:14;98529.81;;;27.42
67515;BMP280;60646;55.802;37.032;2023-07-28T14:05:42;98508.50;;;27.40
67515;BMP280;60646;55.802;37.032;2023-07-28T14:08:07;98479.38;;;27.31
67515;BMP280;60646;55.802;37.032;2023-07-28T14:10:33;98469.25;;;27.36